Time;durP1;ratioP1;P1;durP2;ratioP2;P2;SDS_P1;SDS_P2;PMS_P1;PMS_P2;Temp;Humidity;BMP_temperature;BMP_pressure;BME280_temperature;BME280_humidity;BME280_pressure;Samples;Min_cycle;Max_cycle;Signal;HPM_P1;HPM_P2
2023/08/16 00:01:56;;;;;;;10.27;6.30;;;22.60;77.20;;;;;;5042763;28;20892;-88
2023/08/16 00:04:25;;;;;;;8.40;5.87;;;22.50;77.40;;;;;;5027884;28;20459;-85
2023/08/16 00:06:59;;;;;;;11.73;5.80;;;22.40;77.50;;;;;;5026335;28;20860;-83
2023/08/16 00:09:27;;;;;;;13.40;6.47;;;22.40;77.80;;;;;;5032062;28;20851;-84
2023/08/16 00:11:55;;;;;;;10.90;5.67;;;22.40;77.90;;;;;;5033663;28;20486;-82
2023/08/16 00:14:23;;;;;;;10.53;5.80;;;22.40;78.00;;;;;;5034998;28;20469;-84
2023/08/16 00:16:51;;;;;;;10.50;6.27;;;22.50;78.00;;;;;;5055311;28;20477;-88
2023/08/16 00:19:19;;;;;;;8.97;5.93;;;22.50;77.80;;;;;;5048891;28;20475;-84
2023/08/16 00:21:49;;;;;;;9.97;5.47;;;22.50;77.80;;;;;;5027506;28;20456;-83
2023/08/16 00:24:18;;;;;;;11.53;5.80;;;22.50;77.80;;;;;;5027509;28;20463;-82
2023/08/16 00:26:45;;;;;;;9.90;5.80;;;22.50;77.60;;;;;;5016334;28;20540;-81
2023/08/16 00:29:14;;;;;;;9.87;6.20;;;22.50;77.60;;;;;;5018657;28;20475;-85
2023/08/16 00:31:41;;;;;;;8.47;5.43;;;22.50;77.50;;;;;;5058205;28;20475;-85
2023/08/16 00:34:11;;;;;;;11.40;5.30;;;22.50;77.40;;;;;;5026426;28;20449;-83
2023/08/16 00:36:40;;;;;;;8.43;5.20;;;22.40;77.30;;;;;;5030727;28;20562;-85
2023/08/16 00:39:09;;;;;;;11.70;5.47;;;22.40;77.30;;;;;;5034798;28;20499;-83
2023/08/16 00:41:38;;;;;;;12.77;5.90;;;22.40;77.20;;;;;;5032724;28;20447;-83
2023/08/16 00:44:06;;;;;;;8.87;5.73;;;22.40;77.30;;;;;;5024587;28;20456;-84
2023/08/16 00:46:34;;;;;;;13.37;6.87;;;22.40;77.30;;;;;;5030642;28;20982;-84
2023/08/16 00:49:05;;;;;;;9.40;6.23;;;22.40;77.30;;;;;;5025175;28;20471;-83
2023/08/16 00:51:35;;;;;;;11.57;6.60;;;22.30;77.10;;;;;;5032707;28;20451;-85
2023/08/16 00:54:03;;;;;;;9.03;5.50;;;22.30;77.10;;;;;;5025563;28;21007;-84
2023/08/16 00:56:35;;;;;;;13.53;6.10;;;22.20;77.20;;;;;;5058197;28;20548;-83
2023/08/16 00:59:05;;;;;;;7.53;5.50;;;22.20;77.20;;;;;;5036789;28;20541;-82
2023/08/16 01:01:33;;;;;;;9.80;6.10;;;22.20;77.20;;;;;;5028285;28;20529;-85
2023/08/16 01:04:02;;;;;;;14.40;6.37;;;22.20;77.20;;;;;;5060137;28;20466;-85
2023/08/16 01:06:30;;;;;;;8.83;6.20;;;22.20;77.20;;;;;;5028924;28;20451;-84
2023/08/16 01:08:58;;;;;;;15.30;6.20;;;22.20;77.30;;;;;;5029679;28;20467;-83
2023/08/16 01:11:33;;;;;;;10.83;6.27;;;22.20;77.30;;;;;;5022414;28;20488;-87
2023/08/16 01:14:09;;;;;;;9.80;6.10;;;22.20;77.40;;;;;;5034813;28;20490;-84
2023/08/16 01:16:39;;;;;;;15.13;5.40;;;22.20;77.40;;;;;;5024708;28;20499;-83
2023/08/16 01:19:11;;;;;;;10.40;5.53;;;22.10;77.40;;;;;;5026219;28;20534;-86
2023/08/16 01:21:47;;;;;;;12.60;6.00;;;22.10;77.40;;;;;;5018594;28;20495;-85
2023/08/16 01:24:22;;;;;;;10.83;6.00;;;22.10;77.40;;;;;;5027011;28;20478;-84
2023/08/16 01:26:53;;;;;;;10.40;6.20;;;22.10;77.40;;;;;;5030730;28;20456;-87
2023/08/16 01:29:22;;;;;;;10.47;5.90;;;22.10;77.30;;;;;;5065468;28;20513;-84
2023/08/16 01:31:50;;;;;;;10.17;5.87;;;22.10;77.20;;;;;;5024997;28;20466;-84
2023/08/16 01:34:19;;;;;;;23.93;7.10;;;22.00;77.10;;;;;;5027705;28;20818;-86
2023/08/16 01:36:48;;;;;;;9.70;5.33;;;22.00;77.20;;;;;;5056923;28;20472;-84
2023/08/16 01:39:16;;;;;;;9.50;5.13;;;22.00;77.20;;;;;;5023001;28;20487;-83
2023/08/16 01:41:46;;;;;;;10.97;5.17;;;22.00;77.10;;;;;;5032346;28;20452;-83
2023/08/16 01:44:17;;;;;;;9.13;6.13;;;22.00;77.10;;;;;;5026594;28;20459;-85
2023/08/16 01:46:47;;;;;;;10.87;6.10;;;22.00;77.10;;;;;;5028115;28;20546;-83
2023/08/16 01:49:16;;;;;;;10.90;6.73;;;21.90;77.10;;;;;;5031716;28;20494;-82
2023/08/16 01:51:44;;;;;;;8.63;5.70;;;21.90;77.10;;;;;;5034868;28;20812;-88
2023/08/16 01:54:13;;;;;;;9.83;6.40;;;21.90;77.10;;;;;;5031271;28;20447;-87
2023/08/16 01:56:41;;;;;;;11.13;6.10;;;21.90;77.00;;;;;;5031560;28;21037;-85
2023/08/16 01:59:10;;;;;;;11.07;6.13;;;21.80;77.00;;;;;;5054343;28;20456;-87
2023/08/16 02:01:40;;;;;;;8.00;5.30;;;21.80;77.00;;;;;;5025956;28;20468;-84
2023/08/16 02:04:08;;;;;;;9.67;5.50;;;21.80;77.10;;;;;;5027573;28;20568;-83
2023/08/16 02:06:36;;;;;;;11.27;6.10;;;21.80;77.10;;;;;;5056606;28;20905;-88
2023/08/16 02:09:04;;;;;;;10.00;5.20;;;21.80;77.20;;;;;;5025011;28;20989;-85
2023/08/16 02:11:32;;;;;;;12.03;6.83;;;21.80;77.00;;;;;;5027360;28;20462;-84
2023/08/16 02:14:00;;;;;;;11.70;7.20;;;21.80;77.00;;;;;;5017641;28;21001;-86
2023/08/16 02:16:32;;;;;;;13.53;6.70;;;21.70;77.00;;;;;;5029367;28;20965;-84
2023/08/16 02:19:02;;;;;;;15.73;7.20;;;21.70;77.10;;;;;;5028593;28;20476;-84
2023/08/16 02:21:30;;;;;;;21.13;8.17;;;21.60;77.20;;;;;;5034156;28;20452;-85
2023/08/16 02:23:58;;;;;;;14.43;8.53;;;21.60;77.30;;;;;;5045476;28;20440;-83
2023/08/16 02:26:26;;;;;;;16.93;10.53;;;21.50;77.30;;;;;;5026647;28;20451;-83
2023/08/16 02:28:54;;;;;;;18.70;9.30;;;21.40;77.40;;;;;;5033062;28;20460;-85
2023/08/16 02:31:23;;;;;;;13.70;8.40;;;21.30;77.40;;;;;;5030390;28;20486;-83
2023/08/16 02:33:51;;;;;;;12.63;8.50;;;21.20;77.70;;;;;;5029966;28;20451;-86
2023/08/16 02:36:21;;;;;;;14.30;8.50;;;21.20;78.00;;;;;;5032751;28;20480;-84
2023/08/16 02:38:49;;;;;;;16.73;10.00;;;21.20;78.30;;;;;;5026778;28;20842;-86
2023/08/16 02:41:17;;;;;;;17.90;8.70;;;21.20;78.30;;;;;;5021949;28;20459;-85
2023/08/16 02:43:45;;;;;;;20.10;9.53;;;21.30;78.30;;;;;;5033460;28;20493;-85
2023/08/16 02:46:15;;;;;;;11.87;8.03;;;21.30;78.20;;;;;;5025242;28;20969;-84
2023/08/16 02:48:43;;;;;;;14.93;8.03;;;21.30;78.20;;;;;;5016162;28;20457;-84
2023/08/16 02:51:11;;;;;;;16.30;9.40;;;21.30;78.20;;;;;;5028098;28;20825;-85
2023/08/16 02:53:40;;;;;;;14.30;8.90;;;21.40;78.30;;;;;;5023008;28;20554;-83
2023/08/16 02:56:08;;;;;;;15.10;9.87;;;21.40;78.30;;;;;;5026609;28;20881;-85
2023/08/16 02:58:36;;;;;;;12.57;8.43;;;21.40;78.20;;;;;;5025636;28;20582;-84
2023/08/16 03:01:05;;;;;;;16.63;7.90;;;21.40;78.40;;;;;;5028913;28;20467;-84
2023/08/16 03:03:34;;;;;;;15.53;8.17;;;21.40;78.60;;;;;;5029531;28;21145;-84
2023/08/16 03:06:03;;;;;;;17.00;9.47;;;21.50;78.70;;;;;;5057822;28;20461;-84
2023/08/16 03:08:31;;;;;;;20.57;11.23;;;21.50;78.70;;;;;;5037679;28;20455;-83
2023/08/16 03:11:00;;;;;;;30.13;14.00;;;21.60;78.80;;;;;;5028806;28;20541;-85
2023/08/16 03:13:30;;;;;;;39.37;16.03;;;21.60;78.90;;;;;;5028290;28;20449;-82
2023/08/16 03:15:57;;;;;;;18.50;13.00;;;21.60;79.00;;;;;;5027739;28;21110;-85
2023/08/16 03:18:26;;;;;;;22.97;13.77;;;21.60;79.30;;;;;;5058984;28;20479;-86
2023/08/16 03:20:55;;;;;;;19.60;12.73;;;21.60;79.40;;;;;;5028525;28;20451;-81
2023/08/16 03:23:24;;;;;;;21.57;13.23;;;21.70;79.60;;;;;;5025387;28;20497;-85
2023/08/16 03:25:52;;;;;;;17.30;12.27;;;21.70;79.60;;;;;;5045986;28;20507;-85
2023/08/16 03:28:22;;;;;;;19.73;12.80;;;21.70;79.80;;;;;;5027256;28;20527;-82
2023/08/16 03:30:51;;;;;;;25.40;13.60;;;21.80;79.90;;;;;;5027127;28;20482;-86
2023/08/16 03:33:19;;;;;;;19.67;12.60;;;21.80;79.90;;;;;;5029100;28;20451;-88
2023/08/16 03:35:47;;;;;;;20.80;12.57;;;21.80;80.00;;;;;;5026708;28;20463;-84
2023/08/16 03:38:16;;;;;;;23.00;13.93;;;21.80;80.10;;;;;;5023873;28;20535;-85
2023/08/16 03:40:44;;;;;;;23.10;13.43;;;21.80;80.10;;;;;;5031033;28;20456;-84
2023/08/16 03:43:12;;;;;;;23.03;12.97;;;21.90;80.20;;;;;;5033903;28;20811;-85
2023/08/16 03:45:42;;;;;;;16.00;11.90;;;21.90;80.30;;;;;;5035442;28;20443;-83
2023/08/16 03:48:10;;;;;;;17.70;10.67;;;21.90;80.40;;;;;;5058270;28;20459;-84
2023/08/16 03:50:39;;;;;;;15.23;10.90;;;21.90;80.40;;;;;;5034940;28;20868;-84
2023/08/16 03:53:08;;;;;;;13.60;9.40;;;21.90;80.40;;;;;;5030509;28;20459;-84
2023/08/16 03:55:36;;;;;;;12.47;8.30;;;21.90;80.50;;;;;;5027782;28;20462;-87
2023/08/16 03:58:04;;;;;;;10.87;8.13;;;21.90;80.60;;;;;;5054010;28;20832;-83
2023/08/16 04:00:32;;;;;;;12.27;8.13;;;21.90;80.60;;;;;;5032475;28;20902;-85
2023/08/16 04:03:07;;;;;;;11.83;8.63;;;21.90;80.70;;;;;;5024179;28;20463;-85
2023/08/16 04:05:35;;;;;;;10.97;7.80;;;21.90;80.80;;;;;;5052188;28;20460;-86
2023/08/16 04:08:03;;;;;;;11.57;8.17;;;21.90;80.80;;;;;;5034156;28;21133;-85
2023/08/16 04:10:36;;;;;;;15.00;8.70;;;21.90;80.80;;;;;;5043785;28;20491;-86
2023/08/16 04:13:04;;;;;;;10.73;7.57;;;21.90;80.80;;;;;;5036623;28;20463;-83
2023/08/16 04:15:33;;;;;;;11.40;8.33;;;21.90;80.80;;;;;;5031311;28;20968;-87
2023/08/16 04:18:01;;;;;;;12.80;9.10;;;21.90;80.80;;;;;;5021729;28;20556;-86
2023/08/16 04:20:31;;;;;;;13.90;9.07;;;21.90;80.80;;;;;;5029163;28;20464;-84
2023/08/16 04:23:00;;;;;;;12.23;9.00;;;21.90;80.90;;;;;;5027564;28;20490;-88
2023/08/16 04:25:28;;;;;;;13.03;9.10;;;21.90;80.90;;;;;;5027978;28;20471;-87
2023/08/16 04:27:56;;;;;;;11.63;8.50;;;21.90;81.00;;;;;;5028537;28;20543;-86
2023/08/16 04:30:24;;;;;;;11.33;8.30;;;21.90;81.00;;;;;;5026307;28;21242;-86
2023/08/16 04:32:55;;;;;;;11.37;8.27;;;21.90;81.00;;;;;;5032405;28;20447;-84
2023/08/16 04:35:24;;;;;;;15.10;10.17;;;21.90;81.00;;;;;;5026363;28;20478;-85
2023/08/16 04:37:56;;;;;;;16.97;9.77;;;21.90;80.90;;;;;;5029997;28;20547;-80
2023/08/16 04:40:24;;;;;;;28.80;11.30;;;21.90;80.90;;;;;;5026568;28;21033;-87
2023/08/16 04:42:52;;;;;;;16.40;10.93;;;21.90;80.90;;;;;;5029618;28;20513;-84
2023/08/16 04:45:21;;;;;;;15.53;9.33;;;21.80;81.00;;;;;;5030423;28;21066;-84
2023/08/16 04:47:50;;;;;;;36.90;26.93;;;21.90;81.10;;;;;;5030973;28;20450;-81
2023/08/16 04:50:19;;;;;;;18.10;11.33;;;21.90;81.20;;;;;;5028874;28;21038;-81
2023/08/16 04:52:47;;;;;;;15.23;10.43;;;21.90;81.10;;;;;;5024494;28;20455;-80
2023/08/16 04:55:19;;;;;;;16.10;9.97;;;21.90;81.10;;;;;;5030460;28;20459;-80
2023/08/16 04:57:47;;;;;;;18.07;11.33;;;21.80;81.20;;;;;;5028631;28;20475;-81
2023/08/16 05:00:15;;;;;;;17.00;11.17;;;21.80;81.20;;;;;;5029634;28;20867;-81
2023/08/16 05:02:55;;;;;;;17.03;10.40;;;21.80;81.30;;;;;;5022182;28;20467;-80
2023/08/16 05:05:25;;;;;;;14.63;9.80;;;21.80;81.40;;;;;;5029718;28;20473;-81
2023/08/16 05:07:55;;;;;;;13.80;9.63;;;21.80;81.50;;;;;;5026013;28;20460;-81
2023/08/16 05:10:24;;;;;;;13.57;9.23;;;21.90;81.60;;;;;;5022947;28;20447;-81
2023/08/16 05:12:52;;;;;;;12.90;8.83;;;21.90;81.60;;;;;;5031057;28;20546;-81
2023/08/16 05:15:20;;;;;;;13.43;9.63;;;21.90;81.60;;;;;;5029257;28;20484;-81
2023/08/16 05:17:48;;;;;;;12.97;9.23;;;22.00;81.50;;;;;;5029600;28;20817;-80
2023/08/16 05:20:18;;;;;;;14.60;8.90;;;22.10;81.50;;;;;;5025696;28;20459;-81
2023/08/16 05:22:46;;;;;;;13.73;9.27;;;22.10;81.50;;;;;;5030481;28;20455;-81
2023/08/16 05:25:16;;;;;;;13.63;8.77;;;22.10;81.50;;;;;;5025209;28;20470;-80
2023/08/16 05:27:47;;;;;;;13.60;9.80;;;22.20;81.60;;;;;;5026018;28;20546;-80
2023/08/16 05:30:15;;;;;;;12.83;9.30;;;22.50;81.80;;;;;;5023658;28;20498;-80
2023/08/16 05:32:43;;;;;;;13.70;9.40;;;22.70;81.20;;;;;;5029156;28;20988;-81
2023/08/16 05:35:11;;;;;;;15.03;9.57;;;23.00;81.70;;;;;;5020550;28;20444;-81
2023/08/16 05:37:39;;;;;;;15.77;10.13;;;23.50;81.40;;;;;;5024370;28;20542;-81
2023/08/16 05:40:09;;;;;;;12.50;8.70;;;24.10;80.30;;;;;;5027257;28;20487;-81
2023/08/16 05:42:38;;;;;;;10.07;7.57;;;24.50;79.50;;;;;;5029508;28;20462;-81
2023/08/16 05:45:10;;;;;;;10.53;7.67;;;25.00;79.30;;;;;;5022527;28;20975;-81
2023/08/16 05:47:38;;;;;;;9.53;6.80;;;25.80;78.60;;;;;;5022643;28;20502;-81
2023/08/16 05:50:06;;;;;;;12.40;7.20;;;26.80;77.20;;;;;;5027601;28;20464;-81
2023/08/16 05:52:35;;;;;;;10.83;8.00;;;27.70;75.50;;;;;;5023076;28;20563;-81
2023/08/16 05:55:04;;;;;;;10.97;7.40;;;28.30;73.20;;;;;;5024499;28;20533;-81
2023/08/16 05:57:32;;;;;;;10.43;7.93;;;28.20;71.70;;;;;;5021344;28;20482;-81
2023/08/16 06:00:00;;;;;;;10.00;7.30;;;27.80;72.00;;;;;;5020238;28;20487;-81
2023/08/16 06:02:40;;;;;;;13.47;8.73;;;27.60;72.10;;;;;;5019447;28;20823;-79
2023/08/16 06:05:09;;;;;;;11.60;8.50;;;27.20;71.40;;;;;;5019491;28;20953;-81
2023/08/16 06:07:37;;;;;;;11.13;8.50;;;26.60;71.60;;;;;;5020425;28;20451;-82
2023/08/16 06:10:07;;;;;;;14.13;9.70;;;26.00;72.20;;;;;;5023532;28;20868;-81
2023/08/16 06:12:35;;;;;;;12.63;9.20;;;25.50;72.80;;;;;;5025063;28;20571;-80
2023/08/16 06:15:11;;;;;;;10.97;8.43;;;25.10;73.40;;;;;;5053528;28;20876;-80
2023/08/16 06:17:41;;;;;;;12.73;9.00;;;24.70;74.10;;;;;;5018639;28;20452;-81
2023/08/16 06:20:11;;;;;;;11.07;8.37;;;24.40;74.60;;;;;;5024029;28;20515;-80
2023/08/16 06:22:39;;;;;;;12.00;7.97;;;24.20;75.00;;;;;;5024537;28;20459;-80
2023/08/16 06:25:09;;;;;;;11.27;8.57;;;24.10;75.50;;;;;;5025613;28;20539;-80
2023/08/16 06:27:37;;;;;;;11.47;8.63;;;23.90;75.90;;;;;;5028159;28;20460;-80
2023/08/16 06:30:06;;;;;;;12.60;8.33;;;23.90;76.20;;;;;;5030545;28;20502;-81
2023/08/16 06:32:34;;;;;;;11.03;8.13;;;23.80;76.50;;;;;;5043746;28;20862;-80
2023/08/16 06:35:05;;;;;;;10.23;7.40;;;23.70;76.70;;;;;;5036645;28;20471;-80
2023/08/16 06:37:33;;;;;;;9.77;7.10;;;23.70;77.20;;;;;;5005579;28;20457;-81
2023/08/16 06:40:06;;;;;;;11.67;7.90;;;23.70;77.40;;;;;;5002089;28;20484;-80
2023/08/16 06:42:35;;;;;;;14.83;7.20;;;23.70;77.60;;;;;;5006381;28;20460;-81
2023/08/16 06:45:04;;;;;;;12.70;8.53;;;23.70;77.80;;;;;;5008314;28;20969;-81
2023/08/16 06:47:32;;;;;;;11.67;8.07;;;23.60;78.00;;;;;;5006313;28;20544;-80
2023/08/16 06:50:00;;;;;;;12.03;8.37;;;23.60;78.20;;;;;;5005894;28;20459;-80
2023/08/16 06:52:30;;;;;;;12.93;8.33;;;23.60;78.40;;;;;;5007456;28;20450;-80
2023/08/16 06:54:58;;;;;;;11.63;8.60;;;23.60;78.50;;;;;;5011304;28;20459;-80
2023/08/16 06:57:26;;;;;;;10.10;7.57;;;23.50;78.80;;;;;;5002258;28;20488;-81
2023/08/16 06:59:54;;;;;;;12.40;8.67;;;23.50;79.00;;;;;;5002251;28;20491;-81
2023/08/16 07:02:22;;;;;;;11.40;7.67;;;23.60;79.20;;;;;;4996764;28;20472;-80
2023/08/16 07:04:51;;;;;;;10.20;7.20;;;23.60;79.50;;;;;;4999686;28;20957;-80
2023/08/16 07:07:19;;;;;;;11.00;7.70;;;23.60;79.60;;;;;;5001744;28;20491;-81
2023/08/16 07:09:48;;;;;;;10.93;7.50;;;23.70;79.70;;;;;;5004603;28;20463;-81
2023/08/16 07:12:16;;;;;;;12.00;8.20;;;23.70;79.80;;;;;;5003592;28;20895;-80
2023/08/16 07:14:44;;;;;;;9.70;7.40;;;23.70;79.90;;;;;;5003754;28;20466;-80
2023/08/16 07:17:12;;;;;;;9.60;7.50;;;23.70;80.00;;;;;;5018512;28;20459;-81
2023/08/16 07:19:42;;;;;;;11.37;8.50;;;23.70;80.10;;;;;;5005256;28;20472;-80
2023/08/16 07:22:10;;;;;;;11.60;8.13;;;23.70;80.10;;;;;;5004028;28;20908;-81
2023/08/16 07:24:38;;;;;;;9.33;7.20;;;23.80;80.10;;;;;;5007145;28;20551;-81
2023/08/16 07:27:07;;;;;;;10.77;8.17;;;23.80;80.10;;;;;;5006178;28;20444;-81
2023/08/16 07:29:36;;;;;;;12.60;8.03;;;23.80;80.20;;;;;;5010352;28;20460;-81
2023/08/16 07:32:04;;;;;;;10.70;6.93;;;23.70;80.10;;;;;;5025731;28;20479;-81
2023/08/16 07:34:33;;;;;;;10.90;7.90;;;23.70;80.20;;;;;;5007979;28;20985;-81
2023/08/16 07:37:03;;;;;;;12.37;7.67;;;23.70;80.30;;;;;;5008735;28;20963;-81
2023/08/16 07:39:32;;;;;;;11.60;8.23;;;23.70;80.40;;;;;;5007024;28;20479;-81
2023/08/16 07:42:00;;;;;;;10.93;8.00;;;23.70;80.40;;;;;;5003452;28;20451;-81
2023/08/16 07:44:30;;;;;;;13.40;7.97;;;23.60;80.50;;;;;;5005609;28;20488;-80
2023/08/16 07:46:57;;;;;;;11.60;8.67;;;23.70;80.60;;;;;;5006288;28;20696;-80
2023/08/16 07:49:26;;;;;;;11.37;9.00;;;23.70;80.70;;;;;;5007890;28;20456;-81
2023/08/16 07:51:56;;;;;;;11.77;8.23;;;23.70;80.80;;;;;;5006541;28;20460;-80
2023/08/16 07:54:24;;;;;;;12.80;9.53;;;23.70;80.80;;;;;;5007379;28;20510;-81
2023/08/16 07:56:52;;;;;;;11.13;7.77;;;23.70;80.90;;;;;;5009355;28;20547;-81
2023/08/16 07:59:41;;;;;;;10.80;7.60;;;23.70;81.00;;;;;;5009960;28;20850;-80
2023/08/16 08:02:09;;;;;;;12.13;8.30;;;23.70;81.20;;;;;;4998409;28;21069;-80
2023/08/16 08:04:38;;;;;;;12.77;8.30;;;23.80;81.20;;;;;;5015098;28;20554;-79
2023/08/16 08:07:06;;;;;;;11.13;8.10;;;23.90;81.30;;;;;;5007376;28;20458;-80
2023/08/16 08:09:34;;;;;;;13.03;7.83;;;23.90;81.30;;;;;;5011367;28;21230;-81
2023/08/16 08:12:02;;;;;;;12.13;7.80;;;24.00;81.20;;;;;;5009994;28;20463;-81
2023/08/16 08:14:30;;;;;;;10.60;6.73;;;24.10;81.20;;;;;;5004711;28;20483;-80
2023/08/16 08:17:15;;;;;;;11.53;7.10;;;24.20;81.20;;;;;;5007004;28;20465;-80
2023/08/16 08:19:43;;;;;;;11.33;7.37;;;24.30;81.20;;;;;;5001690;28;20482;-81
2023/08/16 08:22:11;;;;;;;10.37;7.30;;;24.40;81.20;;;;;;5009199;28;20450;-80
2023/08/16 08:24:39;;;;;;;11.57;7.50;;;24.40;81.20;;;;;;5009466;28;20815;-80
2023/08/16 08:27:07;;;;;;;8.73;7.33;;;24.50;81.30;;;;;;5007263;28;20460;-81
2023/08/16 08:29:35;;;;;;;10.20;7.20;;;24.50;81.30;;;;;;5003921;28;20961;-81
2023/08/16 08:32:03;;;;;;;11.20;8.00;;;24.60;81.40;;;;;;5010039;28;20477;-80
2023/08/16 08:34:33;;;;;;;12.80;7.30;;;24.60;81.40;;;;;;5001792;28;20457;-80
2023/08/16 08:37:01;;;;;;;12.30;7.80;;;24.60;81.40;;;;;;5010945;28;20445;-80
2023/08/16 08:39:30;;;;;;;9.33;7.27;;;24.60;81.40;;;;;;5000878;28;20457;-81
2023/08/16 08:41:58;;;;;;;12.57;8.17;;;24.60;81.30;;;;;;5012114;28;20456;-81
2023/08/16 08:44:47;;;;;;;12.50;8.03;;;24.70;81.30;;;;;;5009999;28;20959;-81
2023/08/16 08:47:18;;;;;;;11.63;7.80;;;24.70;81.20;;;;;;4997791;28;20572;-81
2023/08/16 08:49:48;;;;;;;10.73;7.17;;;24.70;81.30;;;;;;5011409;28;20440;-81
2023/08/16 08:52:18;;;;;;;11.60;7.57;;;24.80;81.30;;;;;;5016251;28;20456;-81
2023/08/16 08:54:47;;;;;;;11.13;7.30;;;24.80;81.20;;;;;;5019169;28;21149;-80
2023/08/16 08:57:16;;;;;;;14.00;8.83;;;24.80;81.10;;;;;;5006609;28;20810;-80
2023/08/16 08:59:49;;;;;;;12.43;8.83;;;24.80;81.10;;;;;;5022458;28;20503;-80
2023/08/16 09:02:19;;;;;;;12.60;8.33;;;24.80;81.30;;;;;;5010802;28;20481;-80
2023/08/16 09:04:51;;;;;;;14.20;8.33;;;24.90;81.30;;;;;;5006481;28;20459;-80
2023/08/16 09:07:20;;;;;;;18.80;8.97;;;24.90;81.30;;;;;;5012025;28;20455;-81
2023/08/16 09:09:49;;;;;;;16.97;8.87;;;24.90;81.30;;;;;;5007580;28;20460;-81
2023/08/16 09:12:18;;;;;;;13.07;8.13;;;25.00;81.30;;;;;;5007031;28;20480;-81
2023/08/16 09:14:47;;;;;;;10.77;7.73;;;25.00;81.40;;;;;;5009380;28;20535;-81
2023/08/16 09:17:15;;;;;;;12.43;7.33;;;25.10;81.40;;;;;;5018231;28;20804;-81
2023/08/16 09:19:47;;;;;;;11.50;7.50;;;25.10;81.40;;;;;;5015157;28;20507;-81
2023/08/16 09:22:22;;;;;;;11.90;7.90;;;25.10;81.30;;;;;;5012156;28;20495;-80
2023/08/16 09:24:55;;;;;;;13.07;7.90;;;25.20;81.20;;;;;;5015288;28;20875;-81
2023/08/16 09:27:23;;;;;;;11.57;6.77;;;25.20;81.20;;;;;;5017244;28;20451;-80
2023/08/16 09:29:54;;;;;;;16.20;8.00;;;25.30;81.10;;;;;;5001104;28;20453;-81
2023/08/16 09:32:23;;;;;;;10.77;6.50;;;25.30;81.00;;;;;;5001700;28;20485;-80
2023/08/16 09:34:54;;;;;;;11.43;6.40;;;25.40;80.80;;;;;;5009974;28;20476;-81
2023/08/16 09:37:25;;;;;;;7.60;4.00;;;25.40;80.60;;;;;;5018307;28;20460;-81
2023/08/16 09:39:57;;;;;;;6.90;3.60;;;25.50;80.40;;;;;;5005820;28;20475;-81
2023/08/16 09:42:32;;;;;;;7.30;3.80;;;25.50;79.80;;;;;;5006023;28;20460;-80
2023/08/16 09:45:00;;;;;;;8.20;4.23;;;25.60;79.30;;;;;;5007271;28;20945;-81
2023/08/16 09:47:30;;;;;;;9.53;4.30;;;25.70;79.00;;;;;;5007565;28;20444;-81
2023/08/16 09:50:07;;;;;;;6.23;3.33;;;25.70;78.60;;;;;;5004937;28;20972;-81
2023/08/16 09:52:37;;;;;;;7.90;3.63;;;25.80;78.00;;;;;;5006783;28;20466;-81
2023/08/16 09:55:07;;;;;;;7.03;2.93;;;25.90;77.50;;;;;;5004946;28;20921;-81
2023/08/16 09:57:36;;;;;;;6.13;3.13;;;25.90;76.70;;;;;;5005687;28;20540;-81
2023/08/16 10:00:07;;;;;;;6.30;3.77;;;26.00;76.40;;;;;;5000722;28;20463;-81
2023/08/16 10:02:41;;;;;;;6.40;2.97;;;26.00;76.20;;;;;;5027083;28;20487;-81
2023/08/16 10:05:15;;;;;;;5.90;3.07;;;26.10;76.00;;;;;;5035482;28;20455;-81
2023/08/16 10:07:48;;;;;;;5.60;3.03;;;26.10;75.60;;;;;;5020507;28;20466;-81
2023/08/16 10:10:17;;;;;;;10.10;3.10;;;26.20;75.20;;;;;;5025854;28;20538;-81
2023/08/16 10:12:50;;;;;;;7.07;2.60;;;26.30;74.60;;;;;;5049256;28;20466;-81
2023/08/16 10:15:18;;;;;;;8.43;3.00;;;26.40;74.20;;;;;;5029838;28;20490;-81
2023/08/16 10:17:51;;;;;;;5.20;2.87;;;26.50;74.00;;;;;;5024673;28;20457;-80
2023/08/16 10:20:25;;;;;;;5.27;2.77;;;26.60;73.80;;;;;;5017541;28;20470;-80
2023/08/16 10:22:58;;;;;;;8.87;3.13;;;26.70;73.30;;;;;;5023817;28;20475;-80
2023/08/16 10:25:31;;;;;;;6.70;2.73;;;26.70;72.90;;;;;;5029545;28;20451;-80
2023/08/16 10:28:02;;;;;;;5.00;2.70;;;26.80;72.40;;;;;;5037032;28;20451;-80
2023/08/16 10:30:31;;;;;;;5.90;2.27;;;26.80;71.90;;;;;;5025695;28;20468;-80
2023/08/16 10:33:04;;;;;;;6.17;2.90;;;26.90;71.80;;;;;;5020338;28;20498;-80
2023/08/16 10:35:35;;;;;;;6.20;2.67;;;26.90;71.50;;;;;;5019853;28;20539;-80
2023/08/16 10:38:04;;;;;;;5.57;2.87;;;27.00;71.10;;;;;;5024611;28;20447;-80
2023/08/16 10:40:32;;;;;;;8.70;2.80;;;27.00;70.70;;;;;;5030603;28;20468;-80
2023/08/16 10:43:05;;;;;;;6.27;2.50;;;27.10;70.20;;;;;;5029244;28;20461;-80
2023/08/16 10:45:35;;;;;;;5.30;2.30;;;27.10;70.10;;;;;;5021291;28;20831;-80
2023/08/16 10:48:10;;;;;;;6.47;2.80;;;27.10;69.90;;;;;;5034377;28;20978;-80
2023/08/16 10:55:25;;;;;;;4.87;2.30;;;27.20;69.30;;;;;;5051436;28;20873;-80
2023/08/16 10:58:49;;;;;;;4.80;2.10;;;27.20;69.00;;;;;;5021705;28;20455;-81
2023/08/16 11:01:34;;;;;;;7.00;2.80;;;27.20;68.70;;;;;;5028335;28;20521;-80
2023/08/16 11:04:07;;;;;;;9.00;3.83;;;27.30;68.20;;;;;;5024839;28;20462;-81
2023/08/16 11:07:27;;;;;;;7.03;3.93;;;27.30;68.40;;;;;;5023486;28;20978;-81
2023/08/16 11:14:22;;;;;;;6.27;3.50;;;27.40;68.90;;;;;;5020949;28;20571;-81
2023/08/16 11:16:57;;;;;;;8.90;3.60;;;27.40;69.20;;;;;;5028649;28;20448;-81
2023/08/16 11:19:25;;;;;;;7.20;3.30;;;27.40;69.10;;;;;;5027937;28;20491;-80
2023/08/16 11:21:54;;;;;;;9.73;3.80;;;27.50;69.20;;;;;;5024268;28;20575;-80
2023/08/16 11:24:24;;;;;;;11.70;4.27;;;27.60;69.20;;;;;;5025115;28;20455;-80
2023/08/16 11:26:54;;;;;;;8.43;4.27;;;27.70;69.30;;;;;;4990594;28;20482;-79
2023/08/16 11:29:38;;;;;;;7.00;3.50;;;27.70;69.20;;;;;;5020877;28;20479;-80
2023/08/16 11:32:06;;;;;;;8.40;3.50;;;27.80;68.90;;;;;;5021358;28;20482;-80
2023/08/16 11:34:35;;;;;;;6.40;3.60;;;27.80;68.90;;;;;;5025962;28;20456;-81
2023/08/16 11:37:03;;;;;;;7.23;3.50;;;27.80;69.00;;;;;;5024406;28;20457;-80
2023/08/16 11:39:32;;;;;;;9.37;3.47;;;27.90;68.90;;;;;;5019741;28;20468;-80
2023/08/16 11:42:01;;;;;;;10.00;3.30;;;27.90;68.80;;;;;;5026148;28;20487;-81
2023/08/16 11:44:39;;;;;;;7.57;2.90;;;27.80;68.60;;;;;;5020680;28;20456;-80
2023/08/16 11:47:11;;;;;;;6.83;2.67;;;27.80;68.10;;;;;;5022861;28;20509;-80
2023/08/16 11:49:39;;;;;;;6.90;2.50;;;27.90;68.00;;;;;;5018792;28;21096;-80
2023/08/16 11:52:07;;;;;;;6.80;2.20;;;27.90;67.90;;;;;;5023905;28;20817;-80
2023/08/16 11:54:35;;;;;;;5.90;2.37;;;27.90;67.70;;;;;;5016579;28;20448;-80
2023/08/16 11:57:03;;;;;;;6.83;2.70;;;27.90;67.60;;;;;;5023084;28;20934;-80
2023/08/16 11:59:32;;;;;;;5.40;2.40;;;27.90;66.90;;;;;;5015602;28;20456;-80
2023/08/16 12:02:09;;;;;;;4.33;1.97;;;28.00;66.80;;;;;;5023112;28;20989;-80
2023/08/16 12:04:42;;;;;;;6.00;1.87;;;28.10;66.30;;;;;;5049397;28;20460;-79
2023/08/16 12:07:10;;;;;;;4.93;1.93;;;28.10;65.90;;;;;;5029386;28;20455;-80
2023/08/16 12:09:39;;;;;;;9.97;2.20;;;28.10;65.40;;;;;;5034022;28;20463;-80
2023/08/16 12:12:10;;;;;;;5.20;2.10;;;28.20;65.10;;;;;;5031965;28;20478;-79
2023/08/16 12:14:37;;;;;;;5.60;1.93;;;28.20;64.70;;;;;;5028578;28;20472;-80
2023/08/16 12:17:07;;;;;;;4.50;1.57;;;28.20;64.60;;;;;;5024508;28;20464;-80
2023/08/16 12:19:35;;;;;;;6.17;2.17;;;28.20;64.40;;;;;;5022046;28;20745;-79
2023/08/16 12:22:03;;;;;;;7.27;2.53;;;28.30;64.10;;;;;;5026319;28;20473;-80
2023/08/16 12:24:31;;;;;;;6.10;2.00;;;28.30;63.80;;;;;;5022946;28;20467;-80
2023/08/16 12:26:59;;;;;;;4.60;1.90;;;28.30;63.60;;;;;;5019767;28;21127;-80
2023/08/16 12:29:27;;;;;;;5.13;2.10;;;28.30;63.40;;;;;;5031658;28;20466;-80
2023/08/16 12:31:55;;;;;;;7.33;2.33;;;28.40;63.40;;;;;;5023047;28;21026;-80
2023/08/16 12:34:25;;;;;;;5.30;2.10;;;28.40;63.20;;;;;;5029455;28;20828;-80
2023/08/16 12:36:55;;;;;;;9.70;2.70;;;28.40;62.80;;;;;;5035685;28;20646;-80
2023/08/16 12:39:23;;;;;;;6.33;2.47;;;28.50;62.70;;;;;;5021910;28;20472;-80
2023/08/16 12:41:51;;;;;;;9.60;3.07;;;28.50;62.60;;;;;;5026824;28;20577;-80
2023/08/16 12:44:20;;;;;;;7.80;2.97;;;28.50;62.50;;;;;;5027151;28;20462;-80
2023/08/16 12:46:48;;;;;;;12.03;3.27;;;28.60;62.60;;;;;;5030811;28;20464;-79
2023/08/16 12:49:16;;;;;;;6.27;3.00;;;28.60;62.60;;;;;;5026493;28;20463;-79
2023/08/16 12:51:46;;;;;;;7.80;3.03;;;28.70;62.50;;;;;;5032219;28;20814;-80
2023/08/16 12:54:14;;;;;;;6.10;2.87;;;28.70;62.40;;;;;;5025995;28;20464;-79
2023/08/16 12:56:43;;;;;;;10.13;3.27;;;28.70;62.50;;;;;;5024509;28;20468;-78
2023/08/16 12:59:15;;;;;;;7.43;3.07;;;28.80;62.60;;;;;;5024240;28;20519;-78
2023/08/16 13:01:46;;;;;;;6.33;3.07;;;28.80;62.40;;;;;;5026935;28;20507;-78